sensor_id;sensor_type;location;lat;lon;timestamp;P1;durP1;ratioP1;P2;durP2;ratioP2
11731;SDS011;5922;53.734;10.258;2022-12-18T00:02:21;14.57;;;10.10;;
11731;SDS011;5922;53.734;10.258;2022-12-18T00:04:48;15.73;;;10.57;;
11731;SDS011;5922;53.734;10.258;2022-12-18T00:07:15;16.90;;;11.03;;
11731;SDS011;5922;53.734;10.258;2022-12-18T00:09:42;17.93;;;11.10;;
11731;SDS011;5922;53.734;10.258;2022-12-18T00:12:10;20.40;;;10.77;;
11731;SDS011;5922;53.734;10.258;2022-12-18T00:14:37;19.67;;;11.43;;
11731;SDS011;5922;53.734;10.258;2022-12-18T00:17:05;18.07;;;11.07;;
11731;SDS011;5922;53.734;10.258;2022-12-18T00:19:32;20.83;;;11.30;;
11731;SDS011;5922;53.734;10.258;2022-12-18T00:22:00;15.43;;;10.97;;
11731;SDS011;5922;53.734;10.258;2022-12-18T00:24:27;16.43;;;10.70;;
11731;SDS011;5922;53.734;10.258;2022-12-18T00:26:54;18.43;;;10.07;;
11731;SDS011;5922;53.734;10.258;2022-12-18T00:29:21;18.40;;;10.40;;
11731;SDS011;5922;53.734;10.258;2022-12-18T00:31:49;19.57;;;9.80;;
11731;SDS011;5922;53.734;10.258;2022-12-18T00:34:17;17.47;;;9.90;;
11731;SDS011;5922;53.734;10.258;2022-12-18T00:36:46;16.47;;;9.17;;
11731;SDS011;5922;53.734;10.258;2022-12-18T00:39:14;15.27;;;9.93;;
11731;SDS011;5922;53.734;10.258;2022-12-18T00:41:41;15.63;;;9.73;;
11731;SDS011;5922;53.734;10.258;2022-12-18T00:44:26;15.13;;;10.17;;
11731;SDS011;5922;53.734;10.258;2022-12-18T00:46:53;16.63;;;9.77;;
11731;SDS011;5922;53.734;10.258;2022-12-18T00:49:21;14.47;;;9.80;;
11731;SDS011;5922;53.734;10.258;2022-12-18T00:51:49;15.67;;;9.53;;
11731;SDS011;5922;53.734;10.258;2022-12-18T00:54:16;13.60;;;8.90;;
11731;SDS011;5922;53.734;10.258;2022-12-18T00:56:43;16.70;;;9.60;;
11731;SDS011;5922;53.734;10.258;2022-12-18T00:59:11;16.90;;;9.70;;
11731;SDS011;5922;53.734;10.258;2022-12-18T01:01:38;15.27;;;8.77;;
11731;SDS011;5922;53.734;10.258;2022-12-18T01:04:05;15.90;;;8.67;;
11731;SDS011;5922;53.734;10.258;2022-12-18T01:06:34;14.90;;;9.13;;
11731;SDS011;5922;53.734;10.258;2022-12-18T01:09:01;16.27;;;8.93;;
11731;SDS011;5922;53.734;10.258;2022-12-18T01:11:29;15.60;;;9.37;;
11731;SDS011;5922;53.734;10.258;2022-12-18T01:13:59;15.43;;;9.17;;
11731;SDS011;5922;53.734;10.258;2022-12-18T01:16:26;16.23;;;8.90;;
11731;SDS011;5922;53.734;10.258;2022-12-18T01:18:54;13.73;;;9.50;;
11731;SDS011;5922;53.734;10.258;2022-12-18T01:21:21;14.90;;;8.83;;
11731;SDS011;5922;53.734;10.258;2022-12-18T01:23:53;16.30;;;9.37;;
11731;SDS011;5922;53.734;10.258;2022-12-18T01:26:21;13.33;;;8.60;;
11731;SDS011;5922;53.734;10.258;2022-12-18T01:28:48;13.30;;;9.13;;
11731;SDS011;5922;53.734;10.258;2022-12-18T01:31:17;14.23;;;9.10;;
11731;SDS011;5922;53.734;10.258;2022-12-18T01:33:44;14.87;;;9.40;;
11731;SDS011;5922;53.734;10.258;2022-12-18T01:36:15;14.17;;;8.50;;
11731;SDS011;5922;53.734;10.258;2022-12-18T01:38:44;13.57;;;8.03;;
11731;SDS011;5922;53.734;10.258;2022-12-18T01:41:13;14.73;;;9.07;;
11731;SDS011;5922;53.734;10.258;2022-12-18T01:43:41;14.67;;;8.77;;
11731;SDS011;5922;53.734;10.258;2022-12-18T01:46:09;13.97;;;8.63;;
11731;SDS011;5922;53.734;10.258;2022-12-18T01:48:36;15.73;;;8.60;;
11731;SDS011;5922;53.734;10.258;2022-12-18T01:51:04;12.87;;;8.93;;
11731;SDS011;5922;53.734;10.258;2022-12-18T01:53:31;12.93;;;7.80;;
11731;SDS011;5922;53.734;10.258;2022-12-18T01:55:58;12.50;;;8.67;;
11731;SDS011;5922;53.734;10.258;2022-12-18T01:58:30;10.37;;;7.70;;
11731;SDS011;5922;53.734;10.258;2022-12-18T02:00:59;12.37;;;7.80;;
11731;SDS011;5922;53.734;10.258;2022-12-18T02:03:27;14.70;;;8.80;;
11731;SDS011;5922;53.734;10.258;2022-12-18T02:05:56;15.67;;;8.73;;
11731;SDS011;5922;53.734;10.258;2022-12-18T02:08:29;20.67;;;10.67;;
11731;SDS011;5922;53.734;10.258;2022-12-18T02:11:02;21.40;;;11.53;;
11731;SDS011;5922;53.734;10.258;2022-12-18T02:13:35;18.70;;;10.10;;
11731;SDS011;5922;53.734;10.258;2022-12-18T02:16:05;17.60;;;9.20;;
11731;SDS011;5922;53.734;10.258;2022-12-18T02:18:35;14.13;;;8.73;;
11731;SDS011;5922;53.734;10.258;2022-12-18T02:21:04;15.67;;;8.40;;
11731;SDS011;5922;53.734;10.258;2022-12-18T02:23:38;14.23;;;8.67;;
11731;SDS011;5922;53.734;10.258;2022-12-18T02:26:13;13.53;;;7.87;;
11731;SDS011;5922;53.734;10.258;2022-12-18T02:28:47;13.77;;;8.30;;
11731;SDS011;5922;53.734;10.258;2022-12-18T02:31:17;14.03;;;8.30;;
11731;SDS011;5922;53.734;10.258;2022-12-18T02:33:49;13.77;;;8.50;;
11731;SDS011;5922;53.734;10.258;2022-12-18T02:36:22;11.67;;;8.07;;
11731;SDS011;5922;53.734;10.258;2022-12-18T02:38:50;14.43;;;7.40;;
11731;SDS011;5922;53.734;10.258;2022-12-18T02:41:19;10.63;;;7.57;;
11731;SDS011;5922;53.734;10.258;2022-12-18T02:43:52;9.93;;;7.70;;
11731;SDS011;5922;53.734;10.258;2022-12-18T02:46:25;10.30;;;7.97;;
11731;SDS011;5922;53.734;10.258;2022-12-18T02:48:53;10.50;;;7.47;;
11731;SDS011;5922;53.734;10.258;2022-12-18T02:51:24;13.93;;;8.43;;
11731;SDS011;5922;53.734;10.258;2022-12-18T02:53:56;10.43;;;7.30;;
11731;SDS011;5922;53.734;10.258;2022-12-18T02:56:28;12.17;;;7.03;;
11731;SDS011;5922;53.734;10.258;2022-12-18T02:58:58;12.33;;;7.73;;
11731;SDS011;5922;53.734;10.258;2022-12-18T03:01:28;12.10;;;7.40;;
11731;SDS011;5922;53.734;10.258;2022-12-18T03:03:59;10.73;;;7.17;;
11731;SDS011;5922;53.734;10.258;2022-12-18T03:06:28;11.83;;;7.43;;
11731;SDS011;5922;53.734;10.258;2022-12-18T03:08:56;12.17;;;7.60;;
11731;SDS011;5922;53.734;10.258;2022-12-18T03:11:27;12.43;;;7.40;;
11731;SDS011;5922;53.734;10.258;2022-12-18T03:14:15;11.30;;;7.10;;
11731;SDS011;5922;53.734;10.258;2022-12-18T03:16:43;12.53;;;7.83;;
11731;SDS011;5922;53.734;10.258;2022-12-18T03:19:11;10.90;;;7.40;;
11731;SDS011;5922;53.734;10.258;2022-12-18T03:21:42;11.23;;;6.90;;
11731;SDS011;5922;53.734;10.258;2022-12-18T03:24:10;10.70;;;7.53;;
11731;SDS011;5922;53.734;10.258;2022-12-18T03:26:40;12.97;;;7.50;;
11731;SDS011;5922;53.734;10.258;2022-12-18T03:29:08;11.30;;;7.50;;
11731;SDS011;5922;53.734;10.258;2022-12-18T03:31:36;14.93;;;7.93;;
11731;SDS011;5922;53.734;10.258;2022-12-18T03:34:04;11.87;;;7.67;;
11731;SDS011;5922;53.734;10.258;2022-12-18T03:36:35;12.47;;;7.43;;
11731;SDS011;5922;53.734;10.258;2022-12-18T03:39:03;11.87;;;7.43;;
11731;SDS011;5922;53.734;10.258;2022-12-18T03:41:31;13.60;;;8.23;;
11731;SDS011;5922;53.734;10.258;2022-12-18T03:44:01;13.37;;;7.90;;
11731;SDS011;5922;53.734;10.258;2022-12-18T03:46:33;12.17;;;7.33;;
11731;SDS011;5922;53.734;10.258;2022-12-18T03:49:02;12.27;;;7.80;;
11731;SDS011;5922;53.734;10.258;2022-12-18T03:51:36;10.27;;;7.50;;
11731;SDS011;5922;53.734;10.258;2022-12-18T03:54:04;12.20;;;6.90;;
11731;SDS011;5922;53.734;10.258;2022-12-18T03:56:36;11.63;;;7.03;;
11731;SDS011;5922;53.734;10.258;2022-12-18T03:59:05;14.20;;;7.60;;
11731;SDS011;5922;53.734;10.258;2022-12-18T04:01:33;11.50;;;8.03;;
11731;SDS011;5922;53.734;10.258;2022-12-18T04:04:01;14.07;;;7.83;;
11731;SDS011;5922;53.734;10.258;2022-12-18T04:06:29;11.23;;;7.27;;
11731;SDS011;5922;53.734;10.258;2022-12-18T04:08:59;11.03;;;7.50;;
11731;SDS011;5922;53.734;10.258;2022-12-18T04:11:27;12.13;;;7.43;;
11731;SDS011;5922;53.734;10.258;2022-12-18T04:13:55;14.00;;;8.03;;
11731;SDS011;5922;53.734;10.258;2022-12-18T04:16:24;13.63;;;7.53;;
11731;SDS011;5922;53.734;10.258;2022-12-18T04:18:52;10.60;;;6.87;;
11731;SDS011;5922;53.734;10.258;2022-12-18T04:21:19;11.63;;;7.57;;
11731;SDS011;5922;53.734;10.258;2022-12-18T04:23:47;10.60;;;7.47;;
11731;SDS011;5922;53.734;10.258;2022-12-18T04:26:14;14.83;;;7.67;;
11731;SDS011;5922;53.734;10.258;2022-12-18T04:28:42;12.23;;;7.80;;
11731;SDS011;5922;53.734;10.258;2022-12-18T04:31:09;15.27;;;8.13;;
11731;SDS011;5922;53.734;10.258;2022-12-18T04:33:38;12.70;;;7.83;;
11731;SDS011;5922;53.734;10.258;2022-12-18T04:36:05;12.43;;;7.83;;
11731;SDS011;5922;53.734;10.258;2022-12-18T04:38:32;12.40;;;8.50;;
11731;SDS011;5922;53.734;10.258;2022-12-18T04:40:59;13.30;;;8.03;;
11731;SDS011;5922;53.734;10.258;2022-12-18T04:43:27;12.77;;;8.10;;
11731;SDS011;5922;53.734;10.258;2022-12-18T04:46:00;12.10;;;7.97;;
11731;SDS011;5922;53.734;10.258;2022-12-18T04:48:28;11.37;;;7.37;;
11731;SDS011;5922;53.734;10.258;2022-12-18T04:50:57;13.10;;;8.33;;
11731;SDS011;5922;53.734;10.258;2022-12-18T04:53:24;16.10;;;8.57;;
11731;SDS011;5922;53.734;10.258;2022-12-18T04:56:01;14.30;;;8.50;;
11731;SDS011;5922;53.734;10.258;2022-12-18T04:58:28;10.10;;;7.77;;
11731;SDS011;5922;53.734;10.258;2022-12-18T05:00:56;14.13;;;8.10;;
11731;SDS011;5922;53.734;10.258;2022-12-18T05:03:23;12.50;;;8.20;;
11731;SDS011;5922;53.734;10.258;2022-12-18T05:05:50;12.37;;;7.47;;
11731;SDS011;5922;53.734;10.258;2022-12-18T05:08:19;12.97;;;8.20;;
11731;SDS011;5922;53.734;10.258;2022-12-18T05:10:46;13.77;;;8.80;;
11731;SDS011;5922;53.734;10.258;2022-12-18T05:13:14;11.83;;;8.40;;
11731;SDS011;5922;53.734;10.258;2022-12-18T05:15:41;13.33;;;8.53;;
11731;SDS011;5922;53.734;10.258;2022-12-18T05:18:08;14.57;;;8.73;;
11731;SDS011;5922;53.734;10.258;2022-12-18T05:20:35;11.63;;;7.57;;
11731;SDS011;5922;53.734;10.258;2022-12-18T05:23:03;11.47;;;8.00;;
11731;SDS011;5922;53.734;10.258;2022-12-18T05:25:31;14.33;;;8.97;;
11731;SDS011;5922;53.734;10.258;2022-12-18T05:27:58;15.63;;;8.53;;
11731;SDS011;5922;53.734;10.258;2022-12-18T05:30:26;13.17;;;7.77;;
11731;SDS011;5922;53.734;10.258;2022-12-18T05:32:53;12.97;;;8.03;;
11731;SDS011;5922;53.734;10.258;2022-12-18T05:35:20;12.80;;;8.37;;
11731;SDS011;5922;53.734;10.258;2022-12-18T05:37:48;13.80;;;8.20;;
11731;SDS011;5922;53.734;10.258;2022-12-18T05:40:15;13.00;;;8.20;;
11731;SDS011;5922;53.734;10.258;2022-12-18T05:42:43;13.73;;;9.30;;
11731;SDS011;5922;53.734;10.258;2022-12-18T05:45:11;13.20;;;8.93;;
11731;SDS011;5922;53.734;10.258;2022-12-18T05:47:38;14.43;;;9.03;;
11731;SDS011;5922;53.734;10.258;2022-12-18T05:50:06;13.83;;;9.13;;
11731;SDS011;5922;53.734;10.258;2022-12-18T05:52:33;15.50;;;9.47;;
11731;SDS011;5922;53.734;10.258;2022-12-18T05:55:01;11.87;;;8.00;;
11731;SDS011;5922;53.734;10.258;2022-12-18T05:57:28;14.00;;;8.50;;
11731;SDS011;5922;53.734;10.258;2022-12-18T05:59:56;13.10;;;8.83;;
11731;SDS011;5922;53.734;10.258;2022-12-18T06:02:24;12.93;;;9.43;;
11731;SDS011;5922;53.734;10.258;2022-12-18T06:04:51;15.27;;;9.07;;
11731;SDS011;5922;53.734;10.258;2022-12-18T06:07:18;12.50;;;9.07;;
11731;SDS011;5922;53.734;10.258;2022-12-18T06:09:45;14.33;;;8.10;;
11731;SDS011;5922;53.734;10.258;2022-12-18T06:12:12;13.67;;;8.63;;
11731;SDS011;5922;53.734;10.258;2022-12-18T06:14:40;14.70;;;9.03;;
11731;SDS011;5922;53.734;10.258;2022-12-18T06:17:08;14.93;;;8.77;;
11731;SDS011;5922;53.734;10.258;2022-12-18T06:19:35;16.37;;;9.07;;
11731;SDS011;5922;53.734;10.258;2022-12-18T06:22:03;12.27;;;8.33;;
11731;SDS011;5922;53.734;10.258;2022-12-18T06:24:30;13.83;;;8.20;;
11731;SDS011;5922;53.734;10.258;2022-12-18T06:26:58;18.20;;;8.93;;
11731;SDS011;5922;53.734;10.258;2022-12-18T06:29:25;14.53;;;8.67;;
11731;SDS011;5922;53.734;10.258;2022-12-18T06:31:52;13.77;;;8.70;;
11731;SDS011;5922;53.734;10.258;2022-12-18T06:34:21;13.37;;;9.27;;
11731;SDS011;5922;53.734;10.258;2022-12-18T06:36:48;14.97;;;9.70;;
11731;SDS011;5922;53.734;10.258;2022-12-18T06:39:15;14.90;;;9.00;;
11731;SDS011;5922;53.734;10.258;2022-12-18T06:41:42;12.70;;;9.27;;
11731;SDS011;5922;53.734;10.258;2022-12-18T06:44:09;14.07;;;9.00;;
11731;SDS011;5922;53.734;10.258;2022-12-18T06:46:36;13.67;;;9.27;;
11731;SDS011;5922;53.734;10.258;2022-12-18T06:49:04;15.37;;;9.20;;
11731;SDS011;5922;53.734;10.258;2022-12-18T06:51:33;14.20;;;9.23;;
11731;SDS011;5922;53.734;10.258;2022-12-18T06:54:00;13.93;;;9.10;;
11731;SDS011;5922;53.734;10.258;2022-12-18T06:56:27;14.33;;;8.57;;
11731;SDS011;5922;53.734;10.258;2022-12-18T06:58:54;12.43;;;8.80;;
11731;SDS011;5922;53.734;10.258;2022-12-18T07:01:22;15.80;;;9.20;;
11731;SDS011;5922;53.734;10.258;2022-12-18T07:03:51;17.73;;;9.70;;
11731;SDS011;5922;53.734;10.258;2022-12-18T07:06:19;15.83;;;9.70;;
11731;SDS011;5922;53.734;10.258;2022-12-18T07:08:49;15.80;;;10.20;;
11731;SDS011;5922;53.734;10.258;2022-12-18T07:11:16;17.40;;;9.77;;
11731;SDS011;5922;53.734;10.258;2022-12-18T07:13:44;14.63;;;9.77;;
11731;SDS011;5922;53.734;10.258;2022-12-18T07:16:11;15.97;;;9.80;;
11731;SDS011;5922;53.734;10.258;2022-12-18T07:18:39;15.33;;;9.37;;
11731;SDS011;5922;53.734;10.258;2022-12-18T07:21:07;16.53;;;9.87;;
11731;SDS011;5922;53.734;10.258;2022-12-18T07:23:34;13.43;;;9.43;;
11731;SDS011;5922;53.734;10.258;2022-12-18T07:26:04;16.63;;;9.60;;
11731;SDS011;5922;53.734;10.258;2022-12-18T07:28:31;17.63;;;10.13;;
11731;SDS011;5922;53.734;10.258;2022-12-18T07:31:01;16.87;;;10.33;;
11731;SDS011;5922;53.734;10.258;2022-12-18T07:33:29;18.47;;;10.53;;
11731;SDS011;5922;53.734;10.258;2022-12-18T07:35:56;17.30;;;10.00;;
11731;SDS011;5922;53.734;10.258;2022-12-18T07:38:25;17.73;;;10.93;;
11731;SDS011;5922;53.734;10.258;2022-12-18T07:40:52;15.53;;;10.00;;
11731;SDS011;5922;53.734;10.258;2022-12-18T07:43:21;18.97;;;10.50;;
11731;SDS011;5922;53.734;10.258;2022-12-18T07:45:48;13.37;;;9.30;;
11731;SDS011;5922;53.734;10.258;2022-12-18T07:48:16;14.57;;;9.90;;
11731;SDS011;5922;53.734;10.258;2022-12-18T07:50:43;14.87;;;9.37;;
11731;SDS011;5922;53.734;10.258;2022-12-18T07:53:10;17.97;;;10.10;;
11731;SDS011;5922;53.734;10.258;2022-12-18T07:55:39;15.10;;;9.80;;
11731;SDS011;5922;53.734;10.258;2022-12-18T07:58:07;19.27;;;11.80;;
11731;SDS011;5922;53.734;10.258;2022-12-18T08:00:35;18.63;;;11.93;;
11731;SDS011;5922;53.734;10.258;2022-12-18T08:03:03;16.63;;;10.30;;
11731;SDS011;5922;53.734;10.258;2022-12-18T08:05:30;18.10;;;10.20;;
11731;SDS011;5922;53.734;10.258;2022-12-18T08:07:57;15.80;;;9.73;;
11731;SDS011;5922;53.734;10.258;2022-12-18T08:10:25;17.97;;;11.13;;
11731;SDS011;5922;53.734;10.258;2022-12-18T08:12:52;14.87;;;10.73;;
11731;SDS011;5922;53.734;10.258;2022-12-18T08:15:19;19.10;;;10.47;;
11731;SDS011;5922;53.734;10.258;2022-12-18T08:17:48;15.93;;;11.50;;
11731;SDS011;5922;53.734;10.258;2022-12-18T08:20:15;25.70;;;20.77;;
11731;SDS011;5922;53.734;10.258;2022-12-18T08:22:43;21.83;;;17.37;;
11731;SDS011;5922;53.734;10.258;2022-12-18T08:25:10;16.20;;;10.37;;
11731;SDS011;5922;53.734;10.258;2022-12-18T08:27:37;15.60;;;10.33;;
11731;SDS011;5922;53.734;10.258;2022-12-18T08:30:05;14.33;;;9.63;;
11731;SDS011;5922;53.734;10.258;2022-12-18T08:32:33;17.03;;;10.03;;
11731;SDS011;5922;53.734;10.258;2022-12-18T08:35:01;15.03;;;9.97;;
11731;SDS011;5922;53.734;10.258;2022-12-18T08:37:28;15.77;;;10.10;;
11731;SDS011;5922;53.734;10.258;2022-12-18T08:39:56;16.70;;;10.40;;
11731;SDS011;5922;53.734;10.258;2022-12-18T08:42:23;15.40;;;10.33;;
11731;SDS011;5922;53.734;10.258;2022-12-18T08:45:08;15.90;;;10.23;;
11731;SDS011;5922;53.734;10.258;2022-12-18T08:47:35;14.60;;;9.80;;
11731;SDS011;5922;53.734;10.258;2022-12-18T08:50:04;15.13;;;9.33;;
11731;SDS011;5922;53.734;10.258;2022-12-18T08:52:31;15.30;;;10.43;;
11731;SDS011;5922;53.734;10.258;2022-12-18T08:54:59;15.00;;;8.70;;
11731;SDS011;5922;53.734;10.258;2022-12-18T08:57:26;14.73;;;10.07;;
11731;SDS011;5922;53.734;10.258;2022-12-18T08:59:53;17.03;;;9.93;;
11731;SDS011;5922;53.734;10.258;2022-12-18T09:02:20;13.17;;;9.00;;
11731;SDS011;5922;53.734;10.258;2022-12-18T09:04:47;16.20;;;9.40;;
11731;SDS011;5922;53.734;10.258;2022-12-18T09:07:16;14.90;;;9.87;;
11731;SDS011;5922;53.734;10.258;2022-12-18T09:09:43;19.53;;;13.30;;
11731;SDS011;5922;53.734;10.258;2022-12-18T09:12:10;14.03;;;9.50;;
11731;SDS011;5922;53.734;10.258;2022-12-18T09:14:38;17.20;;;12.17;;
11731;SDS011;5922;53.734;10.258;2022-12-18T09:17:05;16.23;;;10.03;;
11731;SDS011;5922;53.734;10.258;2022-12-18T09:19:32;16.17;;;10.20;;
11731;SDS011;5922;53.734;10.258;2022-12-18T09:21:59;16.77;;;10.90;;
11731;SDS011;5922;53.734;10.258;2022-12-18T09:24:27;15.10;;;9.73;;
11731;SDS011;5922;53.734;10.258;2022-12-18T09:26:55;17.03;;;9.73;;
11731;SDS011;5922;53.734;10.258;2022-12-18T09:29:22;20.57;;;10.73;;
11731;SDS011;5922;53.734;10.258;2022-12-18T09:31:49;19.50;;;11.03;;
11731;SDS011;5922;53.734;10.258;2022-12-18T09:34:16;18.07;;;10.57;;
11731;SDS011;5922;53.734;10.258;2022-12-18T09:36:46;20.30;;;11.10;;
11731;SDS011;5922;53.734;10.258;2022-12-18T09:39:13;16.53;;;9.97;;
11731;SDS011;5922;53.734;10.258;2022-12-18T09:41:45;13.13;;;9.63;;
11731;SDS011;5922;53.734;10.258;2022-12-18T09:44:22;16.37;;;10.03;;
11731;SDS011;5922;53.734;10.258;2022-12-18T09:46:52;18.50;;;10.87;;
11731;SDS011;5922;53.734;10.258;2022-12-18T09:49:21;15.57;;;9.67;;
11731;SDS011;5922;53.734;10.258;2022-12-18T09:51:51;15.80;;;10.37;;
11731;SDS011;5922;53.734;10.258;2022-12-18T09:54:20;17.27;;;10.00;;
11731;SDS011;5922;53.734;10.258;2022-12-18T09:56:50;16.93;;;10.00;;
11731;SDS011;5922;53.734;10.258;2022-12-18T09:59:19;14.40;;;9.73;;
11731;SDS011;5922;53.734;10.258;2022-12-18T10:01:47;20.40;;;10.57;;
11731;SDS011;5922;53.734;10.258;2022-12-18T10:04:15;16.17;;;10.07;;
11731;SDS011;5922;53.734;10.258;2022-12-18T10:06:43;17.90;;;10.20;;
11731;SDS011;5922;53.734;10.258;2022-12-18T10:09:14;17.07;;;10.83;;
11731;SDS011;5922;53.734;10.258;2022-12-18T10:11:47;17.57;;;10.57;;
11731;SDS011;5922;53.734;10.258;2022-12-18T10:14:18;16.37;;;10.53;;
11731;SDS011;5922;53.734;10.258;2022-12-18T10:16:51;18.23;;;10.10;;
11731;SDS011;5922;53.734;10.258;2022-12-18T10:19:23;15.73;;;10.30;;
11731;SDS011;5922;53.734;10.258;2022-12-18T10:21:55;20.93;;;11.80;;
11731;SDS011;5922;53.734;10.258;2022-12-18T10:24:28;23.10;;;14.20;;
11731;SDS011;5922;53.734;10.258;2022-12-18T10:26:59;18.90;;;11.00;;
11731;SDS011;5922;53.734;10.258;2022-12-18T10:29:32;17.57;;;9.90;;
11731;SDS011;5922;53.734;10.258;2022-12-18T10:32:00;16.77;;;9.27;;
11731;SDS011;5922;53.734;10.258;2022-12-18T10:34:27;14.77;;;8.83;;
11731;SDS011;5922;53.734;10.258;2022-12-18T10:36:54;15.80;;;9.10;;
11731;SDS011;5922;53.734;10.258;2022-12-18T10:39:22;15.40;;;9.50;;
11731;SDS011;5922;53.734;10.258;2022-12-18T10:41:51;14.03;;;9.07;;
11731;SDS011;5922;53.734;10.258;2022-12-18T10:44:19;17.50;;;11.63;;
11731;SDS011;5922;53.734;10.258;2022-12-18T10:46:48;29.33;;;15.87;;
11731;SDS011;5922;53.734;10.258;2022-12-18T10:49:21;33.17;;;17.67;;
11731;SDS011;5922;53.734;10.258;2022-12-18T10:51:48;33.90;;;17.77;;
11731;SDS011;5922;53.734;10.258;2022-12-18T10:54:17;28.50;;;16.23;;
11731;SDS011;5922;53.734;10.258;2022-12-18T10:56:44;22.40;;;13.43;;
11731;SDS011;5922;53.734;10.258;2022-12-18T10:59:15;20.80;;;10.90;;
11731;SDS011;5922;53.734;10.258;2022-12-18T11:01:58;14.67;;;9.40;;
11731;SDS011;5922;53.734;10.258;2022-12-18T11:04:27;14.87;;;9.03;;
11731;SDS011;5922;53.734;10.258;2022-12-18T11:06:56;16.43;;;10.37;;
11731;SDS011;5922;53.734;10.258;2022-12-18T11:09:29;17.97;;;10.93;;
11731;SDS011;5922;53.734;10.258;2022-12-18T11:12:15;16.93;;;11.20;;
11731;SDS011;5922;53.734;10.258;2022-12-18T11:14:47;16.90;;;10.83;;
11731;SDS011;5922;53.734;10.258;2022-12-18T11:17:22;20.47;;;10.93;;
11731;SDS011;5922;53.734;10.258;2022-12-18T11:19:54;20.63;;;11.13;;
11731;SDS011;5922;53.734;10.258;2022-12-18T11:22:41;17.80;;;11.17;;
11731;SDS011;5922;53.734;10.258;2022-12-18T11:25:33;17.70;;;10.90;;
11731;SDS011;5922;53.734;10.258;2022-12-18T11:28:24;21.73;;;13.63;;
11731;SDS011;5922;53.734;10.258;2022-12-18T11:33:54;21.70;;;13.20;;
11731;SDS011;5922;53.734;10.258;2022-12-18T11:36:37;20.87;;;12.63;;
11731;SDS011;5922;53.734;10.258;2022-12-18T11:39:27;20.33;;;12.63;;
11731;SDS011;5922;53.734;10.258;2022-12-18T11:42:04;17.27;;;10.67;;
11731;SDS011;5922;53.734;10.258;2022-12-18T11:45:02;20.60;;;13.30;;
11731;SDS011;5922;53.734;10.258;2022-12-18T11:47:42;23.97;;;12.73;;
11731;SDS011;5922;53.734;10.258;2022-12-18T11:50:20;20.83;;;12.87;;
11731;SDS011;5922;53.734;10.258;2022-12-18T11:53:11;22.07;;;13.80;;
11731;SDS011;5922;53.734;10.258;2022-12-18T11:56:03;20.67;;;12.10;;
11731;SDS011;5922;53.734;10.258;2022-12-18T11:59:01;20.40;;;12.03;;
11731;SDS011;5922;53.734;10.258;2022-12-18T12:02:14;17.73;;;11.50;;
11731;SDS011;5922;53.734;10.258;2022-12-18T12:16:41;20.57;;;11.90;;
11731;SDS011;5922;53.734;10.258;2022-12-18T12:19:36;20.67;;;12.30;;
11731;SDS011;5922;53.734;10.258;2022-12-18T12:22:22;18.87;;;11.60;;
11731;SDS011;5922;53.734;10.258;2022-12-18T12:28:09;20.23;;;11.30;;
11731;SDS011;5922;53.734;10.258;2022-12-18T12:30:56;18.20;;;11.20;;
11731;SDS011;5922;53.734;10.258;2022-12-18T12:33:51;19.50;;;11.97;;
11731;SDS011;5922;53.734;10.258;2022-12-18T12:36:39;21.20;;;12.50;;
11731;SDS011;5922;53.734;10.258;2022-12-18T12:39:21;19.87;;;11.27;;
11731;SDS011;5922;53.734;10.258;2022-12-18T12:41:49;20.97;;;10.53;;
11731;SDS011;5922;53.734;10.258;2022-12-18T12:44:35;22.30;;;12.13;;
11731;SDS011;5922;53.734;10.258;2022-12-18T12:47:15;19.47;;;11.47;;
11731;SDS011;5922;53.734;10.258;2022-12-18T12:49:47;19.87;;;10.70;;
11731;SDS011;5922;53.734;10.258;2022-12-18T12:52:20;19.87;;;12.23;;
11731;SDS011;5922;53.734;10.258;2022-12-18T12:54:52;20.47;;;11.63;;
11731;SDS011;5922;53.734;10.258;2022-12-18T12:57:24;18.00;;;11.00;;
11731;SDS011;5922;53.734;10.258;2022-12-18T12:59:57;19.03;;;11.07;;
11731;SDS011;5922;53.734;10.258;2022-12-18T13:02:28;19.50;;;10.77;;
11731;SDS011;5922;53.734;10.258;2022-12-18T13:04:59;21.20;;;11.77;;
11731;SDS011;5922;53.734;10.258;2022-12-18T13:07:32;17.90;;;11.13;;
11731;SDS011;5922;53.734;10.258;2022-12-18T13:10:13;21.30;;;12.27;;
11731;SDS011;5922;53.734;10.258;2022-12-18T13:12:51;22.13;;;12.73;;
11731;SDS011;5922;53.734;10.258;2022-12-18T13:15:21;19.47;;;11.80;;
11731;SDS011;5922;53.734;10.258;2022-12-18T13:20:38;20.73;;;12.33;;
11731;SDS011;5922;53.734;10.258;2022-12-18T13:23:30;22.87;;;13.60;;
11731;SDS011;5922;53.734;10.258;2022-12-18T13:29:01;24.67;;;16.37;;
11731;SDS011;5922;53.734;10.258;2022-12-18T13:34:24;22.70;;;12.73;;
11731;SDS011;5922;53.734;10.258;2022-12-18T13:36:56;21.17;;;12.87;;
11731;SDS011;5922;53.734;10.258;2022-12-18T13:39:30;22.53;;;12.83;;
11731;SDS011;5922;53.734;10.258;2022-12-18T13:44:57;22.63;;;13.20;;
11731;SDS011;5922;53.734;10.258;2022-12-18T13:47:31;22.37;;;12.90;;
11731;SDS011;5922;53.734;10.258;2022-12-18T13:50:22;24.73;;;13.60;;
11731;SDS011;5922;53.734;10.258;2022-12-18T13:52:55;22.97;;;12.80;;
11731;SDS011;5922;53.734;10.258;2022-12-18T13:55:24;23.17;;;13.50;;
11731;SDS011;5922;53.734;10.258;2022-12-18T13:58:02;23.80;;;13.27;;
11731;SDS011;5922;53.734;10.258;2022-12-18T14:00:36;24.80;;;14.53;;
11731;SDS011;5922;53.734;10.258;2022-12-18T14:03:15;26.97;;;14.27;;
11731;SDS011;5922;53.734;10.258;2022-12-18T14:05:55;24.57;;;13.67;;
11731;SDS011;5922;53.734;10.258;2022-12-18T14:08:29;25.40;;;14.30;;
11731;SDS011;5922;53.734;10.258;2022-12-18T14:11:01;27.57;;;15.90;;
11731;SDS011;5922;53.734;10.258;2022-12-18T14:13:30;26.27;;;13.63;;
11731;SDS011;5922;53.734;10.258;2022-12-18T14:16:04;25.57;;;14.40;;
11731;SDS011;5922;53.734;10.258;2022-12-18T14:18:46;25.73;;;13.90;;
11731;SDS011;5922;53.734;10.258;2022-12-18T14:21:25;26.17;;;14.07;;
11731;SDS011;5922;53.734;10.258;2022-12-18T14:24:34;27.93;;;14.87;;
11731;SDS011;5922;53.734;10.258;2022-12-18T14:27:12;25.87;;;13.97;;
11731;SDS011;5922;53.734;10.258;2022-12-18T14:29:42;26.80;;;15.10;;
11731;SDS011;5922;53.734;10.258;2022-12-18T14:32:13;25.07;;;13.97;;
11731;SDS011;5922;53.734;10.258;2022-12-18T14:34:42;24.37;;;13.63;;
11731;SDS011;5922;53.734;10.258;2022-12-18T14:37:10;32.73;;;15.23;;
11731;SDS011;5922;53.734;10.258;2022-12-18T14:39:39;26.20;;;14.77;;
11731;SDS011;5922;53.734;10.258;2022-12-18T14:42:10;28.20;;;14.47;;
11731;SDS011;5922;53.734;10.258;2022-12-18T14:44:43;26.87;;;15.30;;
11731;SDS011;5922;53.734;10.258;2022-12-18T14:47:13;27.43;;;14.27;;
11731;SDS011;5922;53.734;10.258;2022-12-18T14:49:49;29.20;;;14.67;;
11731;SDS011;5922;53.734;10.258;2022-12-18T15:01:26;26.80;;;14.77;;
11731;SDS011;5922;53.734;10.258;2022-12-18T15:03:54;29.63;;;15.40;;
11731;SDS011;5922;53.734;10.258;2022-12-18T15:06:27;30.17;;;16.50;;
11731;SDS011;5922;53.734;10.258;2022-12-18T15:08:57;30.93;;;16.27;;
11731;SDS011;5922;53.734;10.258;2022-12-18T15:11:27;31.33;;;15.43;;
11731;SDS011;5922;53.734;10.258;2022-12-18T15:14:34;29.97;;;15.73;;
11731;SDS011;5922;53.734;10.258;2022-12-18T15:20:20;31.80;;;16.07;;
11731;SDS011;5922;53.734;10.258;2022-12-18T15:23:14;30.90;;;14.53;;
11731;SDS011;5922;53.734;10.258;2022-12-18T15:26:06;34.10;;;16.20;;
11731;SDS011;5922;53.734;10.258;2022-12-18T15:31:33;27.33;;;15.37;;
11731;SDS011;5922;53.734;10.258;2022-12-18T15:34:22;29.30;;;16.20;;
11731;SDS011;5922;53.734;10.258;2022-12-18T15:46:16;31.10;;;15.70;;